sensor_id;sensor_type;location;lat;lon;timestamp;P1;durP1;ratioP1;P2;durP2;ratioP2
9304;SDS011;4690;52.422;13.486;2022-11-09T00:05:58;2.97;;;2.60;;
9304;SDS011;4690;52.422;13.486;2022-11-09T00:08:25;3.77;;;2.97;;
9304;SDS011;4690;52.422;13.486;2022-11-09T00:10:51;5.13;;;3.00;;
9304;SDS011;4690;52.422;13.486;2022-11-09T00:13:17;3.33;;;3.03;;
9304;SDS011;4690;52.422;13.486;2022-11-09T00:15:42;3.20;;;2.90;;
9304;SDS011;4690;52.422;13.486;2022-11-09T00:18:08;3.17;;;2.53;;
9304;SDS011;4690;52.422;13.486;2022-11-09T00:20:34;2.80;;;2.60;;
9304;SDS011;4690;52.422;13.486;2022-11-09T00:22:59;6.07;;;3.07;;
9304;SDS011;4690;52.422;13.486;2022-11-09T00:25:25;3.23;;;2.93;;
9304;SDS011;4690;52.422;13.486;2022-11-09T00:27:51;5.10;;;3.20;;
9304;SDS011;4690;52.422;13.486;2022-11-09T00:30:17;4.17;;;2.70;;
9304;SDS011;4690;52.422;13.486;2022-11-09T00:32:43;3.83;;;3.40;;
9304;SDS011;4690;52.422;13.486;2022-11-09T00:35:09;3.73;;;2.67;;
9304;SDS011;4690;52.422;13.486;2022-11-09T00:37:35;3.17;;;2.87;;
9304;SDS011;4690;52.422;13.486;2022-11-09T00:40:00;3.70;;;3.40;;
9304;SDS011;4690;52.422;13.486;2022-11-09T00:42:26;3.47;;;2.90;;
9304;SDS011;4690;52.422;13.486;2022-11-09T00:44:52;3.80;;;3.00;;
9304;SDS011;4690;52.422;13.486;2022-11-09T00:47:17;2.83;;;2.63;;
9304;SDS011;4690;52.422;13.486;2022-11-09T00:49:43;3.37;;;2.77;;
9304;SDS011;4690;52.422;13.486;2022-11-09T00:52:09;5.40;;;2.73;;
9304;SDS011;4690;52.422;13.486;2022-11-09T00:54:34;3.53;;;2.77;;
9304;SDS011;4690;52.422;13.486;2022-11-09T00:57:00;2.90;;;2.60;;
9304;SDS011;4690;52.422;13.486;2022-11-09T00:59:26;2.97;;;2.67;;
9304;SDS011;4690;52.422;13.486;2022-11-09T01:01:51;3.27;;;2.57;;
9304;SDS011;4690;52.422;13.486;2022-11-09T01:04:17;2.87;;;2.67;;
9304;SDS011;4690;52.422;13.486;2022-11-09T01:06:43;3.47;;;2.60;;
9304;SDS011;4690;52.422;13.486;2022-11-09T01:09:08;4.03;;;2.77;;
9304;SDS011;4690;52.422;13.486;2022-11-09T01:11:34;3.30;;;3.00;;
9304;SDS011;4690;52.422;13.486;2022-11-09T01:14:00;2.73;;;2.53;;
9304;SDS011;4690;52.422;13.486;2022-11-09T01:16:26;3.37;;;2.70;;
9304;SDS011;4690;52.422;13.486;2022-11-09T01:18:52;3.17;;;2.70;;
9304;SDS011;4690;52.422;13.486;2022-11-09T01:21:19;3.80;;;2.60;;
9304;SDS011;4690;52.422;13.486;2022-11-09T01:23:45;3.57;;;2.60;;
9304;SDS011;4690;52.422;13.486;2022-11-09T01:26:11;2.83;;;2.60;;
9304;SDS011;4690;52.422;13.486;2022-11-09T01:28:39;4.90;;;2.80;;
9304;SDS011;4690;52.422;13.486;2022-11-09T01:31:08;3.70;;;2.93;;
9304;SDS011;4690;52.422;13.486;2022-11-09T01:33:37;2.90;;;2.60;;
9304;SDS011;4690;52.422;13.486;2022-11-09T01:36:07;3.70;;;2.70;;
9304;SDS011;4690;52.422;13.486;2022-11-09T01:38:36;3.00;;;2.70;;
9304;SDS011;4690;52.422;13.486;2022-11-09T01:41:04;3.33;;;2.83;;
9304;SDS011;4690;52.422;13.486;2022-11-09T01:43:31;3.00;;;2.63;;
9304;SDS011;4690;52.422;13.486;2022-11-09T01:45:59;4.33;;;2.93;;
9304;SDS011;4690;52.422;13.486;2022-11-09T01:48:50;4.67;;;3.00;;
9304;SDS011;4690;52.422;13.486;2022-11-09T01:51:28;3.20;;;2.70;;
9304;SDS011;4690;52.422;13.486;2022-11-09T01:54:03;3.13;;;2.60;;
9304;SDS011;4690;52.422;13.486;2022-11-09T01:56:39;3.30;;;2.93;;
9304;SDS011;4690;52.422;13.486;2022-11-09T01:59:09;2.97;;;2.70;;
9304;SDS011;4690;52.422;13.486;2022-11-09T02:01:41;4.13;;;2.80;;
9304;SDS011;4690;52.422;13.486;2022-11-09T02:06:47;6.50;;;3.10;;
9304;SDS011;4690;52.422;13.486;2022-11-09T02:09:22;3.53;;;2.90;;
9304;SDS011;4690;52.422;13.486;2022-11-09T02:11:57;2.97;;;2.70;;
9304;SDS011;4690;52.422;13.486;2022-11-09T02:14:24;3.83;;;3.00;;
9304;SDS011;4690;52.422;13.486;2022-11-09T02:16:54;2.67;;;2.43;;
9304;SDS011;4690;52.422;13.486;2022-11-09T02:19:20;4.03;;;2.60;;
9304;SDS011;4690;52.422;13.486;2022-11-09T02:21:46;4.40;;;2.63;;
9304;SDS011;4690;52.422;13.486;2022-11-09T02:24:11;3.50;;;2.83;;
9304;SDS011;4690;52.422;13.486;2022-11-09T02:26:38;4.30;;;2.93;;
9304;SDS011;4690;52.422;13.486;2022-11-09T02:29:13;4.53;;;2.83;;
9304;SDS011;4690;52.422;13.486;2022-11-09T02:31:49;5.03;;;3.00;;
9304;SDS011;4690;52.422;13.486;2022-11-09T02:34:22;2.90;;;2.70;;
9304;SDS011;4690;52.422;13.486;2022-11-09T02:36:49;3.23;;;2.90;;
9304;SDS011;4690;52.422;13.486;2022-11-09T02:39:15;3.50;;;2.70;;
9304;SDS011;4690;52.422;13.486;2022-11-09T02:41:48;3.70;;;2.97;;
9304;SDS011;4690;52.422;13.486;2022-11-09T02:44:19;3.23;;;2.67;;
9304;SDS011;4690;52.422;13.486;2022-11-09T02:46:47;2.47;;;2.27;;
9304;SDS011;4690;52.422;13.486;2022-11-09T02:49:13;5.40;;;2.90;;
9304;SDS011;4690;52.422;13.486;2022-11-09T02:51:39;3.57;;;3.07;;
9304;SDS011;4690;52.422;13.486;2022-11-09T02:54:05;2.97;;;2.40;;
9304;SDS011;4690;52.422;13.486;2022-11-09T02:56:30;3.20;;;2.90;;
9304;SDS011;4690;52.422;13.486;2022-11-09T02:58:56;3.50;;;2.90;;
9304;SDS011;4690;52.422;13.486;2022-11-09T03:01:22;3.40;;;2.80;;
9304;SDS011;4690;52.422;13.486;2022-11-09T03:03:47;3.00;;;2.70;;
9304;SDS011;4690;52.422;13.486;2022-11-09T03:06:13;4.43;;;2.93;;
9304;SDS011;4690;52.422;13.486;2022-11-09T03:08:39;3.00;;;2.70;;
9304;SDS011;4690;52.422;13.486;2022-11-09T03:11:05;3.13;;;2.83;;
9304;SDS011;4690;52.422;13.486;2022-11-09T03:13:31;3.43;;;2.80;;
9304;SDS011;4690;52.422;13.486;2022-11-09T03:16:02;2.97;;;2.63;;
9304;SDS011;4690;52.422;13.486;2022-11-09T03:18:32;3.20;;;2.47;;
9304;SDS011;4690;52.422;13.486;2022-11-09T03:21:04;3.03;;;2.70;;
9304;SDS011;4690;52.422;13.486;2022-11-09T03:23:30;2.77;;;2.53;;
9304;SDS011;4690;52.422;13.486;2022-11-09T03:25:56;4.17;;;2.70;;
9304;SDS011;4690;52.422;13.486;2022-11-09T03:28:22;2.77;;;2.57;;
9304;SDS011;4690;52.422;13.486;2022-11-09T03:30:48;4.47;;;2.63;;
9304;SDS011;4690;52.422;13.486;2022-11-09T03:33:14;3.03;;;2.63;;
9304;SDS011;4690;52.422;13.486;2022-11-09T03:35:40;3.77;;;2.47;;
9304;SDS011;4690;52.422;13.486;2022-11-09T03:38:07;2.90;;;2.70;;
9304;SDS011;4690;52.422;13.486;2022-11-09T03:40:33;2.97;;;2.70;;
9304;SDS011;4690;52.422;13.486;2022-11-09T03:42:59;2.77;;;2.57;;
9304;SDS011;4690;52.422;13.486;2022-11-09T03:45:25;2.67;;;2.47;;
9304;SDS011;4690;52.422;13.486;2022-11-09T03:47:54;3.43;;;2.67;;
9304;SDS011;4690;52.422;13.486;2022-11-09T03:50:25;2.77;;;2.57;;
9304;SDS011;4690;52.422;13.486;2022-11-09T03:52:56;3.40;;;2.70;;
9304;SDS011;4690;52.422;13.486;2022-11-09T03:55:23;2.53;;;2.30;;
9304;SDS011;4690;52.422;13.486;2022-11-09T03:57:49;3.10;;;2.60;;
9304;SDS011;4690;52.422;13.486;2022-11-09T04:00:16;3.17;;;2.50;;
9304;SDS011;4690;52.422;13.486;2022-11-09T04:02:44;6.50;;;2.87;;
9304;SDS011;4690;52.422;13.486;2022-11-09T04:05:10;3.13;;;2.53;;
9304;SDS011;4690;52.422;13.486;2022-11-09T04:07:37;3.53;;;2.53;;
9304;SDS011;4690;52.422;13.486;2022-11-09T04:10:04;2.83;;;2.47;;
9304;SDS011;4690;52.422;13.486;2022-11-09T04:12:31;2.53;;;2.33;;
9304;SDS011;4690;52.422;13.486;2022-11-09T04:14:56;3.27;;;2.50;;
9304;SDS011;4690;52.422;13.486;2022-11-09T04:17:22;2.93;;;2.53;;
9304;SDS011;4690;52.422;13.486;2022-11-09T04:19:48;2.60;;;2.40;;
9304;SDS011;4690;52.422;13.486;2022-11-09T04:22:13;3.10;;;2.80;;
9304;SDS011;4690;52.422;13.486;2022-11-09T04:24:39;3.83;;;2.60;;
9304;SDS011;4690;52.422;13.486;2022-11-09T04:27:05;2.83;;;2.60;;
9304;SDS011;4690;52.422;13.486;2022-11-09T04:29:31;3.67;;;2.77;;
9304;SDS011;4690;52.422;13.486;2022-11-09T04:31:56;3.97;;;2.77;;
9304;SDS011;4690;52.422;13.486;2022-11-09T04:34:22;3.00;;;2.70;;
9304;SDS011;4690;52.422;13.486;2022-11-09T04:36:48;3.40;;;2.90;;
9304;SDS011;4690;52.422;13.486;2022-11-09T04:39:13;2.93;;;2.63;;
9304;SDS011;4690;52.422;13.486;2022-11-09T04:41:40;3.60;;;2.60;;
9304;SDS011;4690;52.422;13.486;2022-11-09T04:44:05;4.53;;;2.50;;
9304;SDS011;4690;52.422;13.486;2022-11-09T04:46:31;2.47;;;2.27;;
9304;SDS011;4690;52.422;13.486;2022-11-09T04:48:57;2.90;;;2.47;;
9304;SDS011;4690;52.422;13.486;2022-11-09T04:51:22;3.83;;;2.60;;
9304;SDS011;4690;52.422;13.486;2022-11-09T04:53:48;3.13;;;2.63;;
9304;SDS011;4690;52.422;13.486;2022-11-09T04:56:14;4.80;;;2.93;;
9304;SDS011;4690;52.422;13.486;2022-11-09T04:58:39;4.50;;;2.70;;
9304;SDS011;4690;52.422;13.486;2022-11-09T05:01:07;3.10;;;2.80;;
9304;SDS011;4690;52.422;13.486;2022-11-09T05:03:37;3.10;;;2.80;;
9304;SDS011;4690;52.422;13.486;2022-11-09T05:06:03;3.63;;;3.10;;
9304;SDS011;4690;52.422;13.486;2022-11-09T05:08:49;2.97;;;2.67;;
9304;SDS011;4690;52.422;13.486;2022-11-09T05:11:19;3.73;;;3.00;;
9304;SDS011;4690;52.422;13.486;2022-11-09T05:13:46;4.80;;;2.93;;
9304;SDS011;4690;52.422;13.486;2022-11-09T05:16:12;3.70;;;2.97;;
9304;SDS011;4690;52.422;13.486;2022-11-09T05:18:38;3.43;;;2.90;;
9304;SDS011;4690;52.422;13.486;2022-11-09T05:21:04;4.47;;;3.10;;
9304;SDS011;4690;52.422;13.486;2022-11-09T05:23:30;5.00;;;2.80;;
9304;SDS011;4690;52.422;13.486;2022-11-09T05:26:14;3.40;;;3.10;;
9304;SDS011;4690;52.422;13.486;2022-11-09T05:28:40;3.50;;;3.20;;
9304;SDS011;4690;52.422;13.486;2022-11-09T05:31:06;5.90;;;3.90;;
9304;SDS011;4690;52.422;13.486;2022-11-09T05:33:32;5.53;;;3.33;;
9304;SDS011;4690;52.422;13.486;2022-11-09T05:35:57;6.37;;;3.33;;
9304;SDS011;4690;52.422;13.486;2022-11-09T05:38:23;4.13;;;3.73;;
9304;SDS011;4690;52.422;13.486;2022-11-09T05:40:50;4.67;;;3.30;;
9304;SDS011;4690;52.422;13.486;2022-11-09T05:43:16;3.70;;;3.40;;
9304;SDS011;4690;52.422;13.486;2022-11-09T05:45:43;4.27;;;3.87;;
9304;SDS011;4690;52.422;13.486;2022-11-09T05:48:09;3.70;;;3.40;;
9304;SDS011;4690;52.422;13.486;2022-11-09T05:50:38;4.90;;;3.57;;
9304;SDS011;4690;52.422;13.486;2022-11-09T05:53:05;5.70;;;3.50;;
9304;SDS011;4690;52.422;13.486;2022-11-09T05:55:31;4.03;;;3.60;;
9304;SDS011;4690;52.422;13.486;2022-11-09T05:57:57;7.07;;;3.40;;
9304;SDS011;4690;52.422;13.486;2022-11-09T06:00:23;4.43;;;3.57;;
9304;SDS011;4690;52.422;13.486;2022-11-09T06:02:50;5.47;;;3.73;;
9304;SDS011;4690;52.422;13.486;2022-11-09T06:05:15;4.37;;;3.20;;
9304;SDS011;4690;52.422;13.486;2022-11-09T06:07:41;4.17;;;3.20;;
9304;SDS011;4690;52.422;13.486;2022-11-09T06:10:08;4.27;;;3.50;;
9304;SDS011;4690;52.422;13.486;2022-11-09T06:12:34;3.00;;;2.80;;
9304;SDS011;4690;52.422;13.486;2022-11-09T06:14:59;5.97;;;3.27;;
9304;SDS011;4690;52.422;13.486;2022-11-09T06:17:25;3.37;;;3.07;;
9304;SDS011;4690;52.422;13.486;2022-11-09T06:19:51;4.53;;;3.40;;
9304;SDS011;4690;52.422;13.486;2022-11-09T06:22:17;6.07;;;3.43;;
9304;SDS011;4690;52.422;13.486;2022-11-09T06:24:42;4.47;;;3.33;;
9304;SDS011;4690;52.422;13.486;2022-11-09T06:27:08;3.80;;;3.40;;
9304;SDS011;4690;52.422;13.486;2022-11-09T06:29:34;3.90;;;3.13;;
9304;SDS011;4690;52.422;13.486;2022-11-09T06:32:00;3.60;;;3.10;;
9304;SDS011;4690;52.422;13.486;2022-11-09T06:34:25;4.50;;;3.00;;
9304;SDS011;4690;52.422;13.486;2022-11-09T06:36:51;3.83;;;3.37;;
9304;SDS011;4690;52.422;13.486;2022-11-09T06:39:17;7.60;;;3.23;;
9304;SDS011;4690;52.422;13.486;2022-11-09T06:41:43;6.10;;;3.20;;
9304;SDS011;4690;52.422;13.486;2022-11-09T06:44:08;5.03;;;3.03;;
9304;SDS011;4690;52.422;13.486;2022-11-09T06:46:34;3.63;;;3.27;;
9304;SDS011;4690;52.422;13.486;2022-11-09T06:49:00;4.57;;;3.80;;
9304;SDS011;4690;52.422;13.486;2022-11-09T06:51:25;5.17;;;3.87;;
9304;SDS011;4690;52.422;13.486;2022-11-09T06:53:51;4.37;;;3.20;;
9304;SDS011;4690;52.422;13.486;2022-11-09T06:56:17;3.53;;;3.23;;
9304;SDS011;4690;52.422;13.486;2022-11-09T06:58:43;5.00;;;3.60;;
9304;SDS011;4690;52.422;13.486;2022-11-09T07:01:10;3.70;;;3.40;;
9304;SDS011;4690;52.422;13.486;2022-11-09T07:03:39;3.80;;;3.00;;
9304;SDS011;4690;52.422;13.486;2022-11-09T07:06:05;3.80;;;3.40;;
9304;SDS011;4690;52.422;13.486;2022-11-09T07:08:33;6.30;;;3.87;;
9304;SDS011;4690;52.422;13.486;2022-11-09T07:11:06;4.43;;;3.27;;
9304;SDS011;4690;52.422;13.486;2022-11-09T07:13:43;3.83;;;3.40;;
9304;SDS011;4690;52.422;13.486;2022-11-09T07:16:12;3.60;;;3.30;;
9304;SDS011;4690;52.422;13.486;2022-11-09T07:18:41;6.10;;;3.67;;
9304;SDS011;4690;52.422;13.486;2022-11-09T07:21:09;4.50;;;3.87;;
9304;SDS011;4690;52.422;13.486;2022-11-09T07:23:35;3.77;;;3.40;;
9304;SDS011;4690;52.422;13.486;2022-11-09T07:26:01;4.87;;;4.10;;
9304;SDS011;4690;52.422;13.486;2022-11-09T07:28:26;4.40;;;3.77;;
9304;SDS011;4690;52.422;13.486;2022-11-09T07:30:52;5.53;;;4.20;;
9304;SDS011;4690;52.422;13.486;2022-11-09T07:33:18;5.27;;;3.97;;
9304;SDS011;4690;52.422;13.486;2022-11-09T07:35:46;5.63;;;4.83;;
9304;SDS011;4690;52.422;13.486;2022-11-09T07:38:12;5.83;;;4.70;;
9304;SDS011;4690;52.422;13.486;2022-11-09T07:40:39;6.90;;;4.90;;
9304;SDS011;4690;52.422;13.486;2022-11-09T07:43:06;6.83;;;4.67;;
9304;SDS011;4690;52.422;13.486;2022-11-09T07:45:33;6.07;;;4.67;;
9304;SDS011;4690;52.422;13.486;2022-11-09T07:48:00;5.73;;;4.80;;
9304;SDS011;4690;52.422;13.486;2022-11-09T07:50:29;5.13;;;4.63;;
9304;SDS011;4690;52.422;13.486;2022-11-09T07:52:57;7.10;;;5.40;;
9304;SDS011;4690;52.422;13.486;2022-11-09T07:55:25;9.37;;;5.40;;
9304;SDS011;4690;52.422;13.486;2022-11-09T07:57:57;5.47;;;4.70;;
9304;SDS011;4690;52.422;13.486;2022-11-09T08:00:26;6.43;;;5.30;;
9304;SDS011;4690;52.422;13.486;2022-11-09T08:02:53;6.37;;;4.80;;
9304;SDS011;4690;52.422;13.486;2022-11-09T08:05:20;9.10;;;5.47;;
9304;SDS011;4690;52.422;13.486;2022-11-09T08:07:45;5.40;;;4.90;;
9304;SDS011;4690;52.422;13.486;2022-11-09T08:10:12;5.73;;;5.10;;
9304;SDS011;4690;52.422;13.486;2022-11-09T08:12:38;5.47;;;4.97;;
9304;SDS011;4690;52.422;13.486;2022-11-09T08:15:04;7.57;;;4.80;;
9304;SDS011;4690;52.422;13.486;2022-11-09T08:17:31;5.97;;;5.07;;
9304;SDS011;4690;52.422;13.486;2022-11-09T08:19:57;6.00;;;5.30;;
9304;SDS011;4690;52.422;13.486;2022-11-09T08:22:22;6.03;;;5.40;;
9304;SDS011;4690;52.422;13.486;2022-11-09T08:24:48;5.50;;;5.00;;
9304;SDS011;4690;52.422;13.486;2022-11-09T08:27:14;6.40;;;5.00;;
9304;SDS011;4690;52.422;13.486;2022-11-09T08:29:39;5.23;;;4.77;;
9304;SDS011;4690;52.422;13.486;2022-11-09T08:32:05;6.17;;;5.57;;
9304;SDS011;4690;52.422;13.486;2022-11-09T08:34:31;6.63;;;4.70;;
9304;SDS011;4690;52.422;13.486;2022-11-09T08:36:59;7.10;;;5.00;;
9304;SDS011;4690;52.422;13.486;2022-11-09T08:39:26;5.23;;;4.73;;
9304;SDS011;4690;52.422;13.486;2022-11-09T08:41:51;6.87;;;4.70;;
9304;SDS011;4690;52.422;13.486;2022-11-09T08:44:17;6.90;;;4.77;;
9304;SDS011;4690;52.422;13.486;2022-11-09T08:46:43;6.27;;;5.30;;
9304;SDS011;4690;52.422;13.486;2022-11-09T08:49:09;5.50;;;4.97;;
9304;SDS011;4690;52.422;13.486;2022-11-09T08:51:34;7.40;;;5.27;;
9304;SDS011;4690;52.422;13.486;2022-11-09T08:54:00;6.67;;;5.50;;
9304;SDS011;4690;52.422;13.486;2022-11-09T08:56:26;7.13;;;5.20;;
9304;SDS011;4690;52.422;13.486;2022-11-09T08:58:52;7.00;;;5.57;;
9304;SDS011;4690;52.422;13.486;2022-11-09T09:01:18;8.47;;;6.00;;
9304;SDS011;4690;52.422;13.486;2022-11-09T09:03:43;8.23;;;5.50;;
9304;SDS011;4690;52.422;13.486;2022-11-09T09:06:10;6.83;;;5.83;;
9304;SDS011;4690;52.422;13.486;2022-11-09T09:08:36;6.10;;;5.50;;
9304;SDS011;4690;52.422;13.486;2022-11-09T09:11:02;9.20;;;5.70;;
9304;SDS011;4690;52.422;13.486;2022-11-09T09:13:29;7.63;;;5.73;;
9304;SDS011;4690;52.422;13.486;2022-11-09T09:15:56;6.80;;;5.90;;
9304;SDS011;4690;52.422;13.486;2022-11-09T09:18:22;6.07;;;5.43;;
9304;SDS011;4690;52.422;13.486;2022-11-09T09:20:48;6.83;;;5.53;;
9304;SDS011;4690;52.422;13.486;2022-11-09T09:23:13;8.83;;;6.33;;
9304;SDS011;4690;52.422;13.486;2022-11-09T09:25:41;7.07;;;5.60;;
9304;SDS011;4690;52.422;13.486;2022-11-09T09:28:07;8.50;;;5.97;;
9304;SDS011;4690;52.422;13.486;2022-11-09T09:30:33;6.63;;;5.30;;
9304;SDS011;4690;52.422;13.486;2022-11-09T09:32:59;6.37;;;5.33;;
9304;SDS011;4690;52.422;13.486;2022-11-09T09:35:27;8.40;;;5.90;;
9304;SDS011;4690;52.422;13.486;2022-11-09T09:37:53;8.50;;;6.00;;
9304;SDS011;4690;52.422;13.486;2022-11-09T09:40:21;6.20;;;5.60;;
9304;SDS011;4690;52.422;13.486;2022-11-09T09:42:55;8.13;;;5.97;;
9304;SDS011;4690;52.422;13.486;2022-11-09T09:45:25;6.70;;;6.00;;
9304;SDS011;4690;52.422;13.486;2022-11-09T09:51:10;7.50;;;5.27;;
9304;SDS011;4690;52.422;13.486;2022-11-09T09:56:50;7.40;;;5.27;;
9304;SDS011;4690;52.422;13.486;2022-11-09T09:59:22;5.93;;;5.33;;
9304;SDS011;4690;52.422;13.486;2022-11-09T10:01:59;6.87;;;5.47;;
9304;SDS011;4690;52.422;13.486;2022-11-09T10:04:43;5.33;;;4.83;;
9304;SDS011;4690;52.422;13.486;2022-11-09T10:07:14;7.50;;;5.47;;
9304;SDS011;4690;52.422;13.486;2022-11-09T10:15:39;6.00;;;5.23;;
9304;SDS011;4690;52.422;13.486;2022-11-09T10:27:16;6.30;;;4.60;;
9304;SDS011;4690;52.422;13.486;2022-11-09T10:30:16;7.43;;;4.87;;
9304;SDS011;4690;52.422;13.486;2022-11-09T10:32:45;6.00;;;4.53;;
9304;SDS011;4690;52.422;13.486;2022-11-09T10:35:19;6.60;;;4.73;;
9304;SDS011;4690;52.422;13.486;2022-11-09T10:37:54;5.13;;;4.63;;
9304;SDS011;4690;52.422;13.486;2022-11-09T10:43:18;4.67;;;4.13;;
9304;SDS011;4690;52.422;13.486;2022-11-09T10:45:44;5.73;;;4.63;;
9304;SDS011;4690;52.422;13.486;2022-11-09T10:48:35;5.53;;;4.60;;
9304;SDS011;4690;52.422;13.486;2022-11-09T10:51:03;4.80;;;4.30;;
9304;SDS011;4690;52.422;13.486;2022-11-09T10:53:30;4.90;;;4.27;;
9304;SDS011;4690;52.422;13.486;2022-11-09T10:56:04;5.50;;;3.70;;
9304;SDS011;4690;52.422;13.486;2022-11-09T11:01:22;4.80;;;4.07;;
9304;SDS011;4690;52.422;13.486;2022-11-09T11:03:54;5.00;;;4.03;;
9304;SDS011;4690;52.422;13.486;2022-11-09T11:08:50;4.00;;;3.50;;
9304;SDS011;4690;52.422;13.486;2022-11-09T11:11:26;4.63;;;3.67;;
9304;SDS011;4690;52.422;13.486;2022-11-09T11:14:11;3.88;;;3.47;;
9304;SDS011;4690;52.422;13.486;2022-11-09T11:16:45;3.83;;;3.40;;
9304;SDS011;4690;52.422;13.486;2022-11-09T11:19:30;3.60;;;3.08;;
9304;SDS011;4690;52.422;13.486;2022-11-09T11:27:27;4.40;;;3.00;;
9304;SDS011;4690;52.422;13.486;2022-11-09T11:30:23;5.10;;;3.42;;
9304;SDS011;4690;52.422;13.486;2022-11-09T11:32:54;4.35;;;3.30;;
9304;SDS011;4690;52.422;13.486;2022-11-09T11:46:18;3.40;;;3.10;;
9304;SDS011;4690;52.422;13.486;2022-11-09T11:49:05;3.72;;;3.20;;
9304;SDS011;4690;52.422;13.486;2022-11-09T11:54:33;3.53;;;3.10;;
9304;SDS011;4690;52.422;13.486;2022-11-09T12:14:36;3.53;;;2.95;;
9304;SDS011;4690;52.422;13.486;2022-11-09T12:17:31;3.55;;;3.17;;
9304;SDS011;4690;52.422;13.486;2022-11-09T12:20:13;3.33;;;3.03;;
9304;SDS011;4690;52.422;13.486;2022-11-09T12:26:01;4.03;;;3.10;;
9304;SDS011;4690;52.422;13.486;2022-11-09T12:34:38;3.35;;;3.05;;
9304;SDS011;4690;52.422;13.486;2022-11-09T12:37:28;3.78;;;3.25;;
9304;SDS011;4690;52.422;13.486;2022-11-09T12:40:38;2.95;;;2.70;;
9304;SDS011;4690;52.422;13.486;2022-11-09T12:43:11;3.22;;;2.75;;
9304;SDS011;4690;52.422;13.486;2022-11-09T12:45:45;3.50;;;3.00;;
9304;SDS011;4690;52.422;13.486;2022-11-09T12:48:24;3.03;;;2.72;;
9304;SDS011;4690;52.422;13.486;2022-11-09T12:50:59;2.80;;;2.60;;
9304;SDS011;4690;52.422;13.486;2022-11-09T12:53:29;3.95;;;2.53;;
9304;SDS011;4690;52.422;13.486;2022-11-09T12:56:19;4.43;;;2.80;;
9304;SDS011;4690;52.422;13.486;2022-11-09T13:01:53;3.42;;;2.20;;
9304;SDS011;4690;52.422;13.486;2022-11-09T13:04:22;3.65;;;2.30;;
9304;SDS011;4690;52.422;13.486;2022-11-09T13:09:43;3.75;;;2.50;;
9304;SDS011;4690;52.422;13.486;2022-11-09T13:12:17;2.47;;;2.28;;
9304;SDS011;4690;52.422;13.486;2022-11-09T13:18:02;2.58;;;2.28;;
9304;SDS011;4690;52.422;13.486;2022-11-09T13:23:01;3.00;;;2.15;;
9304;SDS011;4690;52.422;13.486;2022-11-09T13:25:48;2.60;;;2.33;;
9304;SDS011;4690;52.422;13.486;2022-11-09T13:30:57;2.40;;;2.20;;
9304;SDS011;4690;52.422;13.486;2022-11-09T13:33:31;2.30;;;2.10;;
9304;SDS011;4690;52.422;13.486;2022-11-09T13:38:33;2.50;;;2.30;;
9304;SDS011;4690;52.422;13.486;2022-11-09T13:41:42;2.58;;;2.38;;
9304;SDS011;4690;52.422;13.486;2022-11-09T13:46:58;2.45;;;2.25;;
9304;SDS011;4690;52.422;13.486;2022-11-09T13:52:55;3.63;;;2.20;;
9304;SDS011;4690;52.422;13.486;2022-11-09T13:55:34;2.90;;;2.20;;
9304;SDS011;4690;52.422;13.486;2022-11-09T13:58:11;2.28;;;2.08;;
9304;SDS011;4690;52.422;13.486;2022-11-09T14:00:48;2.55;;;2.00;;
9304;SDS011;4690;52.422;13.486;2022-11-09T14:05:53;3.20;;;2.03;;
9304;SDS011;4690;52.422;13.486;2022-11-09T14:08:29;2.53;;;2.17;;
9304;SDS011;4690;52.422;13.486;2022-11-09T14:14:20;2.80;;;2.50;;
9304;SDS011;4690;52.422;13.486;2022-11-09T14:17:24;2.70;;;2.50;;
9304;SDS011;4690;52.422;13.486;2022-11-09T14:22:59;2.53;;;2.33;;
9304;SDS011;4690;52.422;13.486;2022-11-09T14:25:24;3.97;;;2.30;;
9304;SDS011;4690;52.422;13.486;2022-11-09T14:27:52;2.83;;;2.63;;
9304;SDS011;4690;52.422;13.486;2022-11-09T14:30:23;2.67;;;2.25;;
9304;SDS011;4690;52.422;13.486;2022-11-09T14:32:53;3.22;;;2.70;;
9304;SDS011;4690;52.422;13.486;2022-11-09T14:37:57;3.33;;;2.85;;
9304;SDS011;4690;52.422;13.486;2022-11-09T14:40:29;3.65;;;2.70;;
9304;SDS011;4690;52.422;13.486;2022-11-09T14:46:13;3.85;;;2.70;;
9304;SDS011;4690;52.422;13.486;2022-11-09T14:48:49;3.05;;;2.63;;
9304;SDS011;4690;52.422;13.486;2022-11-09T14:51:18;6.10;;;2.88;;
9304;SDS011;4690;52.422;13.486;2022-11-09T14:53:46;3.13;;;2.85;;
9304;SDS011;4690;52.422;13.486;2022-11-09T14:56:15;3.78;;;2.83;;
9304;SDS011;4690;52.422;13.486;2022-11-09T14:58:45;2.88;;;2.60;;
9304;SDS011;4690;52.422;13.486;2022-11-09T15:03:44;3.40;;;3.10;;
9304;SDS011;4690;52.422;13.486;2022-11-09T15:06:30;3.70;;;3.00;;
9304;SDS011;4690;52.422;13.486;2022-11-09T15:08:59;4.28;;;3.42;;
9304;SDS011;4690;52.422;13.486;2022-11-09T15:11:31;6.47;;;3.78;;
9304;SDS011;4690;52.422;13.486;2022-11-09T15:14:14;3.70;;;3.40;;
9304;SDS011;4690;52.422;13.486;2022-11-09T15:17:02;4.38;;;3.50;;
9304;SDS011;4690;52.422;13.486;2022-11-09T15:19:55;5.82;;;3.95;;
9304;SDS011;4690;52.422;13.486;2022-11-09T15:25:22;5.28;;;3.95;;
9304;SDS011;4690;52.422;13.486;2022-11-09T15:38:39;4.60;;;4.20;;
9304;SDS011;4690;52.422;13.486;2022-11-09T15:41:18;4.97;;;4.43;;
9304;SDS011;4690;52.422;13.486;2022-11-09T15:43:47;5.20;;;4.70;;
9304;SDS011;4690;52.422;13.486;2022-11-09T15:46:23;5.53;;;4.30;;
9304;SDS011;4690;52.422;13.486;2022-11-09T15:51:55;5.00;;;4.50;;
9304;SDS011;4690;52.422;13.486;2022-11-09T15:54:22;5.97;;;4.47;;
9304;SDS011;4690;52.422;13.486;2022-11-09T15:56:49;4.27;;;3.97;;
9304;SDS011;4690;52.422;13.486;2022-11-09T15:59:21;5.57;;;4.57;;
9304;SDS011;4690;52.422;13.486;2022-11-09T16:01:50;5.30;;;4.80;;
9304;SDS011;4690;52.422;13.486;2022-11-09T16:04:16;5.53;;;4.97;;
9304;SDS011;4690;52.422;13.486;2022-11-09T16:06:42;6.43;;;4.80;;
9304;SDS011;4690;52.422;13.486;2022-11-09T16:09:08;5.30;;;4.60;;
9304;SDS011;4690;52.422;13.486;2022-11-09T16:11:34;4.70;;;4.20;;
9304;SDS011;4690;52.422;13.486;2022-11-09T16:14:00;5.00;;;4.50;;
9304;SDS011;4690;52.422;13.486;2022-11-09T16:16:27;6.37;;;5.03;;
9304;SDS011;4690;52.422;13.486;2022-11-09T16:18:55;5.87;;;5.27;;
9304;SDS011;4690;52.422;13.486;2022-11-09T16:21:22;6.30;;;5.70;;
9304;SDS011;4690;52.422;13.486;2022-11-09T16:23:48;5.73;;;5.23;;
9304;SDS011;4690;52.422;13.486;2022-11-09T16:26:16;6.10;;;4.90;;
9304;SDS011;4690;52.422;13.486;2022-11-09T16:28:44;5.90;;;5.00;;
9304;SDS011;4690;52.422;13.486;2022-11-09T16:31:10;5.37;;;4.77;;
9304;SDS011;4690;52.422;13.486;2022-11-09T16:33:37;4.93;;;4.53;;
9304;SDS011;4690;52.422;13.486;2022-11-09T16:36:05;5.80;;;5.17;;
9304;SDS011;4690;52.422;13.486;2022-11-09T16:38:42;6.90;;;5.13;;
9304;SDS011;4690;52.422;13.486;2022-11-09T16:41:12;6.33;;;5.70;;
9304;SDS011;4690;52.422;13.486;2022-11-09T16:43:39;6.17;;;5.40;;
9304;SDS011;4690;52.422;13.486;2022-11-09T16:46:06;5.70;;;5.17;;
9304;SDS011;4690;52.422;13.486;2022-11-09T16:48:35;6.67;;;5.40;;
9304;SDS011;4690;52.422;13.486;2022-11-09T16:51:01;5.43;;;4.93;;
9304;SDS011;4690;52.422;13.486;2022-11-09T16:53:28;5.50;;;5.00;;
9304;SDS011;4690;52.422;13.486;2022-11-09T16:55:54;5.97;;;5.07;;
9304;SDS011;4690;52.422;13.486;2022-11-09T16:58:20;6.17;;;5.53;;
9304;SDS011;4690;52.422;13.486;2022-11-09T17:00:47;6.03;;;5.43;;
9304;SDS011;4690;52.422;13.486;2022-11-09T17:03:15;5.40;;;4.90;;
9304;SDS011;4690;52.422;13.486;2022-11-09T17:05:41;5.37;;;4.80;;
9304;SDS011;4690;52.422;13.486;2022-11-09T17:08:07;7.77;;;5.10;;
9304;SDS011;4690;52.422;13.486;2022-11-09T17:10:38;5.83;;;4.87;;
9304;SDS011;4690;52.422;13.486;2022-11-09T17:13:06;5.37;;;4.87;;
9304;SDS011;4690;52.422;13.486;2022-11-09T17:15:33;6.33;;;5.73;;
9304;SDS011;4690;52.422;13.486;2022-11-09T17:18:11;5.27;;;4.77;;
9304;SDS011;4690;52.422;13.486;2022-11-09T17:20:44;6.57;;;5.47;;
9304;SDS011;4690;52.422;13.486;2022-11-09T17:23:14;7.23;;;6.50;;
9304;SDS011;4690;52.422;13.486;2022-11-09T17:25:52;5.80;;;5.30;;
9304;SDS011;4690;52.422;13.486;2022-11-09T17:28:25;6.70;;;6.00;;
9304;SDS011;4690;52.422;13.486;2022-11-09T17:30:51;6.73;;;6.00;;
9304;SDS011;4690;52.422;13.486;2022-11-09T17:33:18;7.53;;;6.60;;